Time;durP1;ratioP1;P1;durP2;ratioP2;P2;SDS_P1;SDS_P2;PMS_P1;PMS_P2;Temp;Humidity;BMP_temperature;BMP_pressure;BME280_temperature;BME280_humidity;BME280_pressure;Samples;Min_cycle;Max_cycle;Signal;HPM_P1;HPM_P2
2021/08/31 00:00:05;;;;;;;16.15;5.80;;;17.10;99.90;;;;;;2094158;28;20036;-67
2021/08/31 00:01:06;;;;;;;12.65;5.05;;;17.10;99.90;;;;;;2090198;28;20032;-67
2021/08/31 00:02:06;;;;;;;14.25;5.47;;;17.10;99.90;;;;;;2095203;28;20043;-66
2021/08/31 00:03:07;;;;;;;14.73;4.90;;;17.10;99.90;;;;;;2094897;28;20146;-67
2021/08/31 00:04:08;;;;;;;18.63;5.63;;;17.10;99.90;;;;;;2089703;28;21242;-67
2021/08/31 00:05:10;;;;;;;18.55;5.97;;;17.10;99.90;;;;;;2090110;28;20111;-67
2021/08/31 00:06:11;;;;;;;14.00;4.90;;;17.10;99.90;;;;;;2091702;28;20021;-67
2021/08/31 00:07:11;;;;;;;19.02;5.47;;;17.10;99.90;;;;;;2094613;28;20024;-67
2021/08/31 00:08:12;;;;;;;11.02;4.57;;;17.10;99.90;;;;;;2093422;28;20646;-66
2021/08/31 00:09:14;;;;;;;15.43;5.43;;;17.10;99.90;;;;;;2087172;28;20455;-72
2021/08/31 00:10:15;;;;;;;;;;;17.00;99.90;;;;;;2095699;28;20017;-73
2021/08/31 00:11:15;;;;;;;13.48;5.28;;;17.00;99.90;;;;;;2093371;28;19912;-69
2021/08/31 00:12:16;;;;;;;11.88;4.70;;;17.00;99.90;;;;;;2079193;28;20025;-72
2021/08/31 00:13:17;;;;;;;13.25;5.05;;;17.00;99.90;;;;;;2090082;28;20060;-73
2021/08/31 00:14:18;;;;;;;18.17;5.13;;;17.00;99.90;;;;;;2090722;28;20492;-72
2021/08/31 00:15:19;;;;;;;12.85;4.88;;;17.00;99.90;;;;;;2089917;28;20095;-72
2021/08/31 00:16:20;;;;;;;17.73;5.22;;;17.00;99.90;;;;;;2090006;28;20016;-72
2021/08/31 00:17:21;;;;;;;13.93;5.07;;;17.00;99.90;;;;;;2090792;28;20026;-72
2021/08/31 00:18:21;;;;;;;14.35;4.97;;;17.00;99.90;;;;;;2086347;28;20021;-73
2021/08/31 00:19:22;;;;;;;16.83;5.10;;;17.00;99.90;;;;;;2082028;28;20076;-72
2021/08/31 00:20:23;;;;;;;14.10;4.85;;;17.00;99.90;;;;;;2085937;28;20601;-72
2021/08/31 00:21:23;;;;;;;15.32;5.50;;;17.00;99.90;;;;;;2082482;28;20049;-73
2021/08/31 00:22:24;;;;;;;19.42;5.65;;;16.90;99.90;;;;;;2084287;28;20401;-72
2021/08/31 00:23:25;;;;;;;14.10;5.22;;;16.90;99.90;;;;;;2081507;28;20419;-72
2021/08/31 00:24:26;;;;;;;21.48;5.05;;;16.90;99.90;;;;;;2089937;28;20029;-72
2021/08/31 00:25:26;;;;;;;12.90;5.00;;;16.90;99.90;;;;;;2087026;28;20032;-70
2021/08/31 00:26:27;;;;;;;14.70;5.13;;;16.90;99.90;;;;;;2082166;28;20393;-72
2021/08/31 00:27:28;;;;;;;11.80;4.35;;;16.90;99.90;;;;;;2087487;28;20009;-72
2021/08/31 00:28:29;;;;;;;13.95;5.03;;;16.90;99.90;;;;;;2090571;28;20664;-70
2021/08/31 00:29:29;;;;;;;13.85;5.80;;;16.90;99.90;;;;;;2089924;28;20025;-70
2021/08/31 00:30:30;;;;;;;21.92;5.78;;;16.90;99.90;;;;;;2088216;28;20084;-72
2021/08/31 00:31:31;;;;;;;12.45;4.78;;;16.90;99.90;;;;;;2089831;28;20123;-74
2021/08/31 00:32:31;;;;;;;19.83;5.25;;;16.90;99.90;;;;;;2089840;28;20025;-70
2021/08/31 00:33:32;;;;;;;17.83;5.13;;;16.90;99.90;;;;;;2095399;28;20029;-70
2021/08/31 00:34:33;;;;;;;13.18;4.78;;;16.90;99.90;;;;;;2081410;28;20195;-71
2021/08/31 00:35:34;;;;;;;15.00;5.07;;;16.90;99.90;;;;;;2084483;28;20018;-71
2021/08/31 00:36:34;;;;;;;14.73;4.97;;;16.90;99.90;;;;;;2087244;28;20117;-72
2021/08/31 00:37:35;;;;;;;17.23;5.53;;;16.90;99.90;;;;;;2084540;28;20079;-73
2021/08/31 00:38:36;;;;;;;11.05;4.53;;;16.90;99.90;;;;;;2087847;28;20104;-71
2021/08/31 00:39:36;;;;;;;20.45;5.03;;;16.90;99.90;;;;;;2089526;28;20534;-72
2021/08/31 00:40:37;;;;;;;15.50;4.45;;;17.00;99.90;;;;;;2089060;28;20552;-72
2021/08/31 00:41:38;;;;;;;16.13;4.70;;;17.00;99.90;;;;;;2089576;28;20480;-71
2021/08/31 00:42:38;;;;;;;16.65;5.60;;;16.90;99.90;;;;;;2086936;28;20032;-72
2021/08/31 00:43:44;;;;;;;14.77;4.68;;;16.90;99.90;;;;;;2089059;28;20136;-71
2021/08/31 00:44:45;;;;;;;19.73;4.90;;;16.90;99.90;;;;;;2088645;28;20029;-71
2021/08/31 00:45:48;;;;;;;12.75;4.60;;;16.90;99.90;;;;;;2087217;28;20508;-72
2021/08/31 00:46:53;;;;;;;12.85;4.68;;;16.90;99.90;;;;;;2088934;28;20415;-72
2021/08/31 00:47:54;;;;;;;17.98;5.03;;;16.90;99.90;;;;;;2082525;28;20022;-72
2021/08/31 00:48:56;;;;;;;14.57;4.82;;;16.90;99.90;;;;;;2082093;28;20017;-72
2021/08/31 00:49:56;;;;;;;18.00;5.10;;;16.90;99.90;;;;;;2086313;28;20031;-72
2021/08/31 00:50:57;;;;;;;10.68;4.63;;;16.90;99.90;;;;;;2084309;28;20033;-70
2021/08/31 00:51:58;;;;;;;13.65;4.68;;;16.90;99.90;;;;;;2086655;28;20021;-71
2021/08/31 00:52:59;;;;;;;15.15;5.00;;;16.90;99.90;;;;;;2088537;28;20036;-70
2021/08/31 00:54:00;;;;;;;14.32;4.40;;;16.90;99.90;;;;;;2090292;28;20033;-73
2021/08/31 00:55:01;;;;;;;17.75;5.32;;;16.90;99.90;;;;;;2090484;28;20033;-71
2021/08/31 00:56:04;;;;;;;11.15;4.72;;;16.90;99.90;;;;;;2090239;28;20086;-70
2021/08/31 00:57:05;;;;;;;17.00;4.97;;;16.90;99.90;;;;;;2090479;28;20033;-71
2021/08/31 00:58:06;;;;;;;13.80;5.03;;;16.90;99.90;;;;;;2088743;28;20017;-72
2021/08/31 00:59:07;;;;;;;10.98;4.50;;;16.90;99.90;;;;;;2088463;28;20114;-70
2021/08/31 01:00:10;;;;;;;11.75;4.50;;;16.90;99.90;;;;;;2089595;28;20029;-74
2021/08/31 01:01:11;;;;;;;16.27;4.45;;;16.90;99.90;;;;;;2083016;28;20120;-72
2021/08/31 01:02:12;;;;;;;18.27;5.10;;;16.90;99.90;;;;;;2073184;28;20536;-71
2021/08/31 01:03:12;;;;;;;15.32;4.63;;;16.90;99.90;;;;;;2082942;28;20021;-71
2021/08/31 01:04:13;;;;;;;15.15;4.53;;;16.90;99.90;;;;;;2083373;28;20017;-72
2021/08/31 01:05:14;;;;;;;14.02;4.20;;;16.90;99.90;;;;;;2082246;28;20048;-70
2021/08/31 01:06:15;;;;;;;18.50;4.97;;;16.90;99.90;;;;;;2083537;28;20584;-72
2021/08/31 01:07:15;;;;;;;12.50;4.20;;;16.90;99.90;;;;;;2082228;28;20021;-71
2021/08/31 01:08:16;;;;;;;12.40;4.80;;;16.90;99.90;;;;;;2090372;28;20017;-71
2021/08/31 01:09:17;;;;;;;14.15;4.95;;;16.90;99.90;;;;;;2087185;28;20493;-73
2021/08/31 01:10:20;;;;;;;10.27;3.85;;;16.90;99.90;;;;;;2081904;28;20613;-71
2021/08/31 01:11:21;;;;;;;15.15;4.20;;;16.90;99.90;;;;;;2084790;28;20018;-71
2021/08/31 01:12:22;;;;;;;14.93;5.15;;;16.90;99.90;;;;;;2090501;28;20097;-71
2021/08/31 01:13:23;;;;;;;16.13;3.90;;;16.80;99.90;;;;;;2086178;28;20025;-73
2021/08/31 01:14:26;;;;;;;9.90;3.80;;;16.80;99.90;;;;;;2088498;28;20031;-74
2021/08/31 01:15:28;;;;;;;;;;;16.80;99.90;;;;;;2087395;28;20104;-70
2021/08/31 01:16:29;;;;;;;14.70;4.93;;;16.80;99.90;;;;;;2084352;28;20006;-73
2021/08/31 01:17:30;;;;;;;11.63;4.85;;;16.90;99.90;;;;;;2084430;28;21005;-72
2021/08/31 01:18:30;;;;;;;20.00;4.80;;;16.80;99.90;;;;;;2079589;28;20072;-71
2021/08/31 01:19:31;;;;;;;13.35;4.28;;;16.80;99.90;;;;;;2085057;28;20028;-71
2021/08/31 01:20:32;;;;;;;13.75;4.15;;;16.90;99.90;;;;;;2085696;28;20025;-71
2021/08/31 01:21:33;;;;;;;16.48;4.45;;;16.90;99.90;;;;;;2089747;28;20025;-72
2021/08/31 01:22:34;;;;;;;10.10;4.03;;;16.90;99.90;;;;;;2089218;28;20021;-72
2021/08/31 01:23:35;;;;;;;16.58;4.72;;;16.90;99.90;;;;;;2083837;28;20029;-73
2021/08/31 01:24:43;;;;;;;15.20;4.57;;;16.90;99.90;;;;;;2089273;28;20052;-72
2021/08/31 01:25:45;;;;;;;14.88;4.30;;;16.90;99.90;;;;;;2083397;28;20485;-73
2021/08/31 01:26:49;;;;;;;16.10;4.20;;;16.90;99.90;;;;;;2082103;28;20018;-71
2021/08/31 01:27:50;;;;;;;13.63;4.57;;;16.90;99.90;;;;;;2087767;28;20029;-72
2021/08/31 01:28:50;;;;;;;14.90;4.60;;;16.90;99.90;;;;;;2088930;28;20421;-71
2021/08/31 01:29:52;;;;;;;11.93;4.28;;;16.90;99.90;;;;;;2081432;28;20025;-71
2021/08/31 01:30:54;;;;;;;10.27;4.20;;;16.90;99.90;;;;;;2084998;28;20012;-71
2021/08/31 01:31:56;;;;;;;12.20;4.53;;;16.90;99.90;;;;;;2085260;28;20064;-71
2021/08/31 01:32:57;;;;;;;;;;;16.90;99.90;;;;;;2082316;28;20105;-72
2021/08/31 01:33:57;;;;;;;11.88;4.32;;;16.90;99.90;;;;;;2082544;28;19905;-73
2021/08/31 01:34:58;;;;;;;16.55;4.57;;;16.90;99.90;;;;;;2081460;28;20712;-72
2021/08/31 01:36:13;;;;;;;14.70;4.68;;;16.90;99.90;;;;;;2072491;28;20022;-71
2021/08/31 01:37:14;;;;;;;15.85;4.40;;;16.90;99.90;;;;;;2085004;28;20024;-72
2021/08/31 01:38:15;;;;;;;15.80;4.68;;;16.90;99.90;;;;;;2090305;28;20665;-72
2021/08/31 01:39:16;;;;;;;13.13;4.95;;;16.90;99.90;;;;;;2089928;28;20021;-73
2021/08/31 01:40:16;;;;;;;11.13;4.65;;;16.90;99.90;;;;;;2089838;28;20520;-72
2021/08/31 01:41:18;;;;;;;16.48;4.55;;;16.90;99.90;;;;;;2088132;28;20055;-72
2021/08/31 01:42:19;;;;;;;15.70;4.60;;;16.90;99.90;;;;;;2089175;28;20025;-71
2021/08/31 01:43:25;;;;;;;12.45;4.57;;;16.90;99.90;;;;;;2089396;28;20029;-72
2021/08/31 01:44:26;;;;;;;13.02;5.18;;;16.90;99.90;;;;;;2089416;28;20017;-72
2021/08/31 01:45:27;;;;;;;17.52;4.70;;;16.90;99.90;;;;;;2088891;28;20027;-72
2021/08/31 01:46:27;;;;;;;14.00;4.28;;;16.90;99.90;;;;;;2081713;28;20525;-72
2021/08/31 01:47:28;;;;;;;14.57;4.55;;;17.00;99.90;;;;;;2081234;28;20148;-71
2021/08/31 01:48:29;;;;;;;16.63;4.43;;;16.90;99.90;;;;;;2087062;28;20064;-71
2021/08/31 01:49:29;;;;;;;13.70;4.20;;;16.90;99.90;;;;;;2082804;28;20017;-72
2021/08/31 01:50:30;;;;;;;14.32;4.68;;;16.90;99.90;;;;;;2087342;28;20448;-72
2021/08/31 01:51:31;;;;;;;17.98;4.80;;;16.90;99.90;;;;;;2089272;28;20024;-72
2021/08/31 01:52:31;;;;;;;11.27;4.53;;;16.90;99.90;;;;;;2084964;28;20025;-72
2021/08/31 01:53:34;;;;;;;14.55;4.88;;;16.90;99.90;;;;;;2085644;28;20059;-72
2021/08/31 01:54:34;;;;;;;14.88;4.60;;;16.90;99.90;;;;;;2085165;28;20026;-72
2021/08/31 01:55:35;;;;;;;13.93;4.43;;;16.90;99.90;;;;;;2080475;28;20029;-72
2021/08/31 01:56:36;;;;;;;9.57;3.95;;;16.90;99.90;;;;;;2081601;28;20021;-71
2021/08/31 01:57:37;;;;;;;13.70;4.68;;;16.90;99.90;;;;;;2081109;28;20013;-72
2021/08/31 01:58:37;;;;;;;13.45;5.10;;;16.90;99.90;;;;;;2080985;28;20018;-71
2021/08/31 01:59:38;;;;;;;12.57;4.80;;;16.90;99.90;;;;;;2087532;28;20028;-71
2021/08/31 02:00:39;;;;;;;10.98;4.20;;;16.90;99.90;;;;;;2080626;28;20026;-72
2021/08/31 02:01:39;;;;;;;16.70;4.63;;;16.90;99.90;;;;;;2080801;28;20053;-70
2021/08/31 02:02:40;;;;;;;20.73;5.13;;;16.90;99.90;;;;;;2084579;28;20096;-70
2021/08/31 02:03:41;;;;;;;15.43;4.78;;;16.90;99.90;;;;;;2089909;28;20029;-70
2021/08/31 02:04:41;;;;;;;14.25;4.88;;;16.90;99.90;;;;;;2088086;28;20532;-71
2021/08/31 02:05:42;;;;;;;11.95;4.60;;;16.80;99.90;;;;;;2088770;28;20044;-70
2021/08/31 02:06:43;;;;;;;19.85;5.60;;;16.80;99.90;;;;;;2081045;28;20017;-71
2021/08/31 02:07:44;;;;;;;15.77;5.82;;;16.80;99.90;;;;;;2080760;28;20032;-70
2021/08/31 02:08:44;;;;;;;14.27;4.95;;;16.80;99.90;;;;;;2072728;28;20501;-70
2021/08/31 02:09:45;;;;;;;13.80;5.20;;;16.80;99.90;;;;;;2080620;28;20032;-70
2021/08/31 02:10:46;;;;;;;13.40;5.25;;;16.80;99.90;;;;;;2081723;28;20056;-74
2021/08/31 02:11:46;;;;;;;13.52;4.90;;;16.80;99.90;;;;;;2081599;28;20104;-72
2021/08/31 02:12:47;;;;;;;15.07;5.03;;;16.80;99.90;;;;;;2083793;28;20025;-71
2021/08/31 02:13:48;;;;;;;19.25;5.63;;;16.70;99.90;;;;;;2086894;28;20029;-72
2021/08/31 02:14:49;;;;;;;14.23;5.43;;;16.70;99.90;;;;;;2083345;28;20075;-72
2021/08/31 02:15:50;;;;;;;16.10;5.03;;;16.80;99.90;;;;;;2083883;28;20520;-73
2021/08/31 02:16:50;;;;;;;12.88;4.63;;;16.80;99.90;;;;;;2081588;28;20037;-71
2021/08/31 02:17:51;;;;;;;14.88;4.95;;;16.70;99.90;;;;;;2083460;28;20037;-71
2021/08/31 02:18:52;;;;;;;13.27;4.75;;;16.70;99.90;;;;;;2090009;28;20037;-73
2021/08/31 02:19:53;;;;;;;16.35;4.95;;;16.70;99.90;;;;;;2089742;28;20028;-71
2021/08/31 02:20:53;;;;;;;13.43;4.53;;;16.70;99.90;;;;;;2082455;28;20021;-70
2021/08/31 02:21:54;;;;;;;23.15;6.72;;;16.70;99.90;;;;;;2080207;28;20026;-71
2021/08/31 02:22:55;;;;;;;14.80;4.72;;;16.70;99.90;;;;;;2093905;28;20031;-71
2021/08/31 02:23:56;;;;;;;17.65;4.78;;;16.70;99.90;;;;;;2088597;28;20594;-71
2021/08/31 02:24:56;;;;;;;17.17;4.63;;;16.70;99.90;;;;;;2080632;28;20071;-72
2021/08/31 02:25:57;;;;;;;16.17;5.25;;;16.70;99.90;;;;;;2087580;28;20033;-71
2021/08/31 02:26:58;;;;;;;15.63;5.05;;;16.70;99.90;;;;;;2087894;28;20532;-72
2021/08/31 02:27:58;;;;;;;10.60;4.53;;;16.70;99.90;;;;;;2083803;28;20500;-71
2021/08/31 02:28:59;;;;;;;14.30;5.07;;;16.70;99.90;;;;;;2083008;28;20036;-71
2021/08/31 02:30:00;;;;;;;11.77;4.28;;;16.70;99.90;;;;;;2088020;28;20031;-74
2021/08/31 02:31:01;;;;;;;14.82;4.60;;;16.70;99.90;;;;;;2088861;28;20096;-71
2021/08/31 02:32:03;;;;;;;15.55;4.60;;;16.70;99.90;;;;;;2086884;28;20033;-72
2021/08/31 02:33:04;;;;;;;12.05;4.97;;;16.70;99.90;;;;;;2081698;28;20017;-70
2021/08/31 02:34:04;;;;;;;20.00;5.43;;;16.70;99.90;;;;;;2086713;28;20028;-71
2021/08/31 02:35:06;;;;;;;15.13;4.57;;;16.70;99.90;;;;;;2089730;28;20071;-70
2021/08/31 02:36:07;;;;;;;17.75;4.93;;;16.70;99.90;;;;;;2089402;28;20755;-71
2021/08/31 02:37:07;;;;;;;11.43;4.68;;;16.70;99.90;;;;;;2087292;28;20029;-71
2021/08/31 02:38:08;;;;;;;11.10;5.22;;;16.70;99.90;;;;;;2084546;28;20030;-73
2021/08/31 02:39:09;;;;;;;15.50;4.97;;;16.70;99.90;;;;;;2083649;28;20019;-72
2021/08/31 02:40:11;;;;;;;13.13;4.80;;;16.70;99.90;;;;;;2081415;28;20040;-74
2021/08/31 02:41:11;;;;;;;15.38;4.80;;;16.70;99.90;;;;;;2088618;28;20031;-71
2021/08/31 02:42:12;;;;;;;13.18;4.60;;;16.70;99.90;;;;;;2080384;28;20037;-70
2021/08/31 02:43:13;;;;;;;14.93;4.95;;;16.70;99.90;;;;;;2072652;28;20524;-70
2021/08/31 02:44:14;;;;;;;16.95;5.13;;;16.70;99.90;;;;;;2084143;28;20020;-70
2021/08/31 02:45:14;;;;;;;9.82;4.28;;;16.70;99.90;;;;;;2089835;28;20096;-71
2021/08/31 02:46:15;;;;;;;17.20;4.38;;;16.70;99.90;;;;;;2085298;28;20427;-72
2021/08/31 02:47:16;;;;;;;12.23;4.55;;;16.70;99.90;;;;;;2080179;28;20025;-71
2021/08/31 02:48:16;;;;;;;16.30;5.00;;;16.70;99.90;;;;;;2077557;28;20029;-71
2021/08/31 02:49:17;;;;;;;10.18;4.75;;;16.70;99.90;;;;;;2085451;28;20404;-72
2021/08/31 02:50:18;;;;;;;13.50;4.72;;;16.70;99.90;;;;;;2089780;28;20056;-72
2021/08/31 02:51:18;;;;;;;17.80;5.50;;;16.70;99.90;;;;;;2081164;28;20101;-71
2021/08/31 02:52:19;;;;;;;18.05;5.07;;;16.70;99.90;;;;;;2080460;28;20025;-72
2021/08/31 02:53:20;;;;;;;11.00;4.93;;;16.70;99.90;;;;;;2089287;28;20095;-71
2021/08/31 02:54:20;;;;;;;14.43;4.32;;;16.70;99.90;;;;;;2087595;28;20086;-71
2021/08/31 02:55:21;;;;;;;19.75;4.80;;;16.70;99.90;;;;;;2087751;28;20032;-71
2021/08/31 02:56:22;;;;;;;14.10;4.60;;;16.70;99.90;;;;;;2087070;28;20417;-71
2021/08/31 02:57:23;;;;;;;11.95;4.38;;;16.60;99.90;;;;;;2087879;28;20099;-72
2021/08/31 02:58:23;;;;;;;11.65;4.93;;;16.60;99.90;;;;;;2087763;28;20025;-72
2021/08/31 02:59:25;;;;;;;14.30;5.55;;;16.60;99.90;;;;;;2086553;28;20033;-71
2021/08/31 03:00:30;;;;;;;9.95;4.25;;;16.60;99.90;;;;;;2072723;28;20026;-71
2021/08/31 03:01:36;;;;;;;12.23;4.82;;;16.60;99.90;;;;;;2083306;28;20032;-71
2021/08/31 03:02:37;;;;;;;12.57;4.88;;;16.60;99.90;;;;;;2081824;28;20017;-72
2021/08/31 03:03:38;;;;;;;13.90;4.70;;;16.60;99.90;;;;;;2081554;28;20018;-71
2021/08/31 03:04:41;;;;;;;12.18;4.22;;;16.60;99.90;;;;;;2084615;28;20029;-72
2021/08/31 03:05:42;;;;;;;15.02;4.72;;;16.60;99.90;;;;;;2088646;28;20500;-72
2021/08/31 03:06:42;;;;;;;13.20;4.43;;;16.60;99.90;;;;;;2081101;28;20025;-72
2021/08/31 03:07:43;;;;;;;8.60;3.83;;;16.60;99.90;;;;;;2080518;28;20113;-72
2021/08/31 03:08:44;;;;;;;13.38;5.18;;;16.60;99.90;;;;;;2080596;28;20031;-71
2021/08/31 03:09:44;;;;;;;16.02;5.00;;;16.60;99.90;;;;;;2081551;28;20028;-73
2021/08/31 03:10:45;;;;;;;12.55;4.88;;;16.60;99.90;;;;;;2083145;28;20031;-71
2021/08/31 03:11:45;;;;;;;19.55;5.05;;;16.60;99.90;;;;;;2084580;28;20033;-71
2021/08/31 03:12:46;;;;;;;9.00;4.72;;;16.60;99.90;;;;;;2088707;28;20025;-71
2021/08/31 03:13:47;;;;;;;9.82;4.55;;;16.60;99.90;;;;;;2081647;28;20448;-70
2021/08/31 03:14:48;;;;;;;13.10;4.40;;;16.60;99.90;;;;;;2085777;28;20100;-70
2021/08/31 03:15:48;;;;;;;9.90;4.05;;;16.60;99.90;;;;;;2076192;28;20030;-71
2021/08/31 03:16:49;;;;;;;9.80;4.38;;;16.60;99.90;;;;;;2083398;28;20037;-72
2021/08/31 03:17:52;;;;;;;11.18;4.28;;;16.60;99.90;;;;;;2081173;28;20025;-70
2021/08/31 03:18:53;;;;;;;14.60;4.03;;;16.50;99.90;;;;;;2087449;28;20389;-72
2021/08/31 03:19:53;;;;;;;10.60;4.20;;;16.50;99.90;;;;;;2080442;28;20036;-71
2021/08/31 03:20:54;;;;;;;9.52;4.10;;;16.50;99.90;;;;;;2080559;28;20033;-72
2021/08/31 03:21:58;;;;;;;13.10;5.18;;;16.60;99.90;;;;;;2082525;28;20013;-70
2021/08/31 03:22:59;;;;;;;12.90;3.97;;;16.60;99.90;;;;;;2088852;28;20021;-73
2021/08/31 03:23:59;;;;;;;10.43;4.20;;;16.60;99.90;;;;;;2088894;28;20059;-71
2021/08/31 03:25:00;;;;;;;13.30;4.25;;;16.50;99.90;;;;;;2081481;28;20022;-72
2021/08/31 03:26:01;;;;;;;12.63;4.00;;;16.60;99.90;;;;;;2080659;28;20029;-71
2021/08/31 03:27:01;;;;;;;11.45;3.97;;;16.50;99.90;;;;;;2080902;28;20032;-72
2021/08/31 03:28:02;;;;;;;14.68;4.18;;;16.50;99.90;;;;;;2087281;28;20029;-73
2021/08/31 03:29:03;;;;;;;12.93;4.22;;;16.50;99.90;;;;;;2084906;28;20025;-73
2021/08/31 03:30:05;;;;;;;11.52;4.50;;;16.50;99.90;;;;;;2080695;28;20026;-72
2021/08/31 03:31:06;;;;;;;14.63;4.63;;;16.50;99.90;;;;;;2087490;28;20036;-71
2021/08/31 03:32:07;;;;;;;12.38;4.72;;;16.50;99.90;;;;;;2089073;28;20018;-73
2021/08/31 03:33:08;;;;;;;11.93;4.53;;;16.50;99.90;;;;;;2084765;28;20033;-72
2021/08/31 03:34:09;;;;;;;11.50;4.30;;;16.50;99.90;;;;;;2086418;28;20505;-71
2021/08/31 03:35:11;;;;;;;9.73;4.35;;;16.50;99.90;;;;;;2081699;28;20509;-71
2021/08/31 03:36:11;;;;;;;;;;;16.50;99.90;;;;;;2089903;28;20013;-71
2021/08/31 03:37:12;;;;;;;10.90;4.00;;;16.50;99.90;;;;;;2089133;28;19909;-71
2021/08/31 03:38:13;;;;;;;14.80;4.53;;;16.50;99.90;;;;;;2089592;28;20025;-71
2021/08/31 03:39:13;;;;;;;9.90;3.90;;;16.50;99.90;;;;;;2083540;28;20024;-71
2021/08/31 03:40:14;;;;;;;11.38;3.75;;;16.50;99.90;;;;;;2082675;28;20031;-72
2021/08/31 03:41:15;;;;;;;10.35;4.32;;;16.50;99.90;;;;;;2084372;28;20036;-74
2021/08/31 03:42:15;;;;;;;14.00;3.90;;;16.50;99.90;;;;;;2085494;28;20029;-72
2021/08/31 03:43:16;;;;;;;10.23;4.63;;;16.50;99.90;;;;;;2080646;28;20044;-73
2021/08/31 03:44:17;;;;;;;11.88;4.10;;;16.50;99.90;;;;;;2076727;28;20028;-73
2021/08/31 03:45:18;;;;;;;15.50;5.03;;;16.50;99.90;;;;;;2087872;28;20531;-73
2021/08/31 03:46:19;;;;;;;9.95;4.00;;;16.50;99.90;;;;;;2080235;28;20026;-74
2021/08/31 03:47:19;;;;;;;10.55;4.22;;;16.50;99.90;;;;;;2085747;28;20481;-71
2021/08/31 03:48:20;;;;;;;13.45;4.63;;;16.50;99.90;;;;;;2081549;28;20494;-72
2021/08/31 03:49:20;;;;;;;10.15;3.60;;;16.50;99.90;;;;;;2084512;28;20021;-72
2021/08/31 03:50:21;;;;;;;8.77;4.30;;;16.50;99.90;;;;;;2086641;28;20021;-71
2021/08/31 03:51:22;;;;;;;11.93;4.32;;;16.50;99.90;;;;;;2082619;28;20025;-71
2021/08/31 03:52:22;;;;;;;13.98;4.80;;;16.50;99.90;;;;;;2081471;28;20036;-72
2021/08/31 03:53:23;;;;;;;15.05;4.72;;;16.50;99.90;;;;;;2087269;28;20111;-71
2021/08/31 03:54:24;;;;;;;10.23;4.75;;;16.50;99.90;;;;;;2086458;28;20404;-71
2021/08/31 03:55:25;;;;;;;10.27;4.03;;;16.50;99.90;;;;;;2083094;28;20485;-72
2021/08/31 03:56:25;;;;;;;10.63;4.00;;;16.50;99.90;;;;;;2089418;28;20412;-71
2021/08/31 03:57:26;;;;;;;16.60;4.80;;;16.50;99.90;;;;;;2087734;28;20063;-72
2021/08/31 03:58:27;;;;;;;12.30;4.43;;;16.50;99.90;;;;;;2082637;28;20569;-71
2021/08/31 03:59:27;;;;;;;11.43;4.50;;;16.50;99.90;;;;;;2082492;28;20085;-71
2021/08/31 04:00:28;;;;;;;10.70;4.30;;;16.50;99.90;;;;;;2087705;28;20064;-72
2021/08/31 04:01:29;;;;;;;13.45;4.53;;;16.50;99.90;;;;;;2083390;28;20524;-71
2021/08/31 04:02:29;;;;;;;10.77;4.35;;;16.40;99.90;;;;;;2082540;28;20033;-72
2021/08/31 04:03:30;;;;;;;11.15;4.82;;;16.40;99.90;;;;;;2082674;28;20041;-71
2021/08/31 04:04:31;;;;;;;10.38;4.93;;;16.40;99.90;;;;;;2082078;28;20032;-72
2021/08/31 04:05:31;;;;;;;10.48;4.07;;;16.40;99.90;;;;;;2082739;28;20025;-73
2021/08/31 04:06:32;;;;;;;10.65;4.47;;;16.50;99.90;;;;;;2087009;28;20612;-71
2021/08/31 04:07:32;;;;;;;19.00;4.97;;;16.50;99.90;;;;;;2085443;28;20021;-71
2021/08/31 04:08:33;;;;;;;13.80;5.20;;;16.50;99.90;;;;;;2090798;28;20024;-71
2021/08/31 04:09:34;;;;;;;13.98;3.90;;;16.50;99.90;;;;;;2089904;28;20028;-71
2021/08/31 04:10:34;;;;;;;14.52;4.07;;;16.50;99.90;;;;;;2090281;28;20025;-70
2021/08/31 04:11:35;;;;;;;9.25;4.20;;;16.50;99.90;;;;;;2087058;28;20027;-70
2021/08/31 04:12:36;;;;;;;15.68;4.57;;;16.50;99.90;;;;;;2083633;28;20053;-70
2021/08/31 04:13:37;;;;;;;9.15;3.67;;;16.50;99.90;;;;;;2085053;28;20397;-72
2021/08/31 04:14:37;;;;;;;13.18;3.85;;;16.50;99.90;;;;;;2089992;28;20032;-71
2021/08/31 04:15:38;;;;;;;11.35;3.97;;;16.50;99.90;;;;;;2090923;28;20033;-71
2021/08/31 04:16:39;;;;;;;11.48;4.13;;;16.50;99.90;;;;;;2084318;28;20032;-70
2021/08/31 04:17:39;;;;;;;16.38;4.75;;;16.50;99.90;;;;;;2081299;28;20049;-71
2021/08/31 04:18:40;;;;;;;9.30;4.28;;;16.50;99.90;;;;;;2089052;28;20100;-70
2021/08/31 04:19:41;;;;;;;12.15;5.32;;;16.50;99.90;;;;;;2084955;28;20021;-71
2021/08/31 04:20:42;;;;;;;10.88;4.25;;;16.50;99.90;;;;;;2088322;28;20098;-70
2021/08/31 04:21:42;;;;;;;15.65;4.20;;;16.50;99.90;;;;;;2090789;28;20024;-70
2021/08/31 04:22:43;;;;;;;10.18;4.53;;;16.40;99.90;;;;;;2086958;28;20076;-72
2021/08/31 04:23:44;;;;;;;9.68;4.07;;;16.40;99.90;;;;;;2081758;28;20025;-70
2021/08/31 04:24:45;;;;;;;14.48;4.15;;;16.40;99.90;;;;;;2075269;28;20037;-71
2021/08/31 04:25:45;;;;;;;18.83;4.95;;;16.40;99.90;;;;;;2085807;28;20028;-74
2021/08/31 04:26:46;;;;;;;9.52;4.82;;;16.40;99.90;;;;;;2090661;28;20397;-71
2021/08/31 04:27:46;;;;;;;10.25;4.03;;;16.40;99.90;;;;;;2088961;28;20017;-71
2021/08/31 04:28:47;;;;;;;14.32;4.18;;;16.40;99.90;;;;;;2084173;28;20025;-71
2021/08/31 04:29:48;;;;;;;8.98;4.22;;;16.40;99.90;;;;;;2090803;28;20010;-70
2021/08/31 04:30:49;;;;;;;14.52;4.43;;;16.40;99.90;;;;;;2084795;28;20429;-72
2021/08/31 04:31:49;;;;;;;12.15;4.38;;;16.40;99.90;;;;;;2081856;28;20104;-70
2021/08/31 04:32:50;;;;;;;10.27;4.00;;;16.40;99.90;;;;;;2081542;28;20021;-70
2021/08/31 04:33:51;;;;;;;12.48;4.55;;;16.40;99.90;;;;;;2084957;28;20021;-71
2021/08/31 04:34:55;;;;;;;10.65;4.30;;;16.40;99.90;;;;;;2088797;28;20098;-71
2021/08/31 04:35:56;;;;;;;13.45;4.70;;;16.40;99.90;;;;;;2084875;28;20037;-70
2021/08/31 04:36:56;;;;;;;12.25;5.05;;;16.40;99.90;;;;;;2088572;28;20436;-71
2021/08/31 04:37:57;;;;;;;13.55;4.30;;;16.40;99.90;;;;;;2089821;28;20512;-71
2021/08/31 04:38:58;;;;;;;12.95;3.97;;;16.40;99.90;;;;;;2085916;28;20025;-72
2021/08/31 04:39:59;;;;;;;9.10;4.07;;;16.40;99.90;;;;;;2082443;28;20053;-73
2021/08/31 04:41:00;;;;;;;11.35;3.90;;;16.30;99.90;;;;;;2087748;28;20021;-72
2021/08/31 04:42:06;;;;;;;9.82;3.80;;;16.30;99.90;;;;;;2080207;28;20053;-72
2021/08/31 04:43:06;;;;;;;13.00;4.13;;;16.30;99.90;;;;;;2081222;28;20053;-70
2021/08/31 04:44:07;;;;;;;12.93;4.75;;;16.30;99.90;;;;;;2089628;28;20025;-70
2021/08/31 04:45:08;;;;;;;10.80;4.20;;;16.30;99.90;;;;;;2090311;28;20032;-70
2021/08/31 04:46:09;;;;;;;10.25;3.75;;;16.30;99.90;;;;;;2089838;28;20104;-71
2021/08/31 04:47:10;;;;;;;12.40;4.22;;;16.30;99.90;;;;;;2089602;28;20052;-72
2021/08/31 04:48:11;;;;;;;14.20;4.35;;;16.30;99.90;;;;;;2089820;28;20043;-70
2021/08/31 04:49:11;;;;;;;11.82;3.80;;;16.30;99.90;;;;;;2089961;28;20029;-70
2021/08/31 04:50:12;;;;;;;17.35;4.38;;;16.30;99.90;;;;;;2087488;28;20036;-71
2021/08/31 04:51:13;;;;;;;9.27;4.15;;;16.30;99.90;;;;;;2089952;28;20052;-70
2021/08/31 04:52:14;;;;;;;14.05;4.20;;;16.20;99.90;;;;;;2083302;28;20513;-71
2021/08/31 04:53:14;;;;;;;13.35;4.38;;;16.20;99.90;;;;;;2089907;28;20115;-71
2021/08/31 04:54:15;;;;;;;13.45;4.50;;;16.20;99.90;;;;;;2088087;28;20021;-72
2021/08/31 04:55:16;;;;;;;16.95;4.20;;;16.20;99.90;;;;;;2084839;28;20562;-72
2021/08/31 04:56:16;;;;;;;15.32;4.85;;;16.20;99.90;;;;;;2084086;28;20421;-72
2021/08/31 04:57:17;;;;;;;8.63;3.53;;;16.20;99.90;;;;;;2081912;28;20525;-72
2021/08/31 04:58:17;;;;;;;12.10;4.38;;;16.20;99.90;;;;;;2089680;28;20040;-71
2021/08/31 04:59:19;;;;;;;13.35;4.72;;;16.20;99.90;;;;;;2087086;28;20021;-71
2021/08/31 05:00:20;;;;;;;7.85;3.47;;;16.20;99.90;;;;;;2081854;28;20082;-73
2021/08/31 05:01:20;;;;;;;15.88;4.35;;;16.20;99.90;;;;;;2082835;28;20033;-72
2021/08/31 05:02:21;;;;;;;10.32;4.13;;;16.20;99.90;;;;;;2089517;28;20036;-72
2021/08/31 05:03:22;;;;;;;13.68;4.45;;;16.20;99.90;;;;;;2082330;28;20587;-72
2021/08/31 05:04:28;;;;;;;9.95;3.92;;;16.20;99.90;;;;;;2081882;28;20018;-72
2021/08/31 05:05:29;;;;;;;13.50;3.75;;;16.20;99.90;;;;;;2081461;28;20068;-71
2021/08/31 05:06:31;;;;;;;13.30;3.70;;;16.20;99.90;;;;;;2086362;28;20390;-71
2021/08/31 05:07:31;;;;;;;;;;;16.20;99.90;;;;;;2090521;28;20409;-70
2021/08/31 05:08:32;;;;;;;15.93;4.25;;;16.20;99.90;;;;;;2090406;28;19999;-72
2021/08/31 05:09:32;;;;;;;12.68;3.30;;;16.20;99.90;;;;;;2086557;28;20021;-72
2021/08/31 05:10:33;;;;;;;12.68;3.75;;;16.20;99.90;;;;;;2082005;28;20029;-71
2021/08/31 05:11:34;;;;;;;13.20;4.20;;;16.20;99.90;;;;;;2081955;28;20477;-71
2021/08/31 05:12:35;;;;;;;15.30;4.20;;;16.20;99.90;;;;;;2081784;28;20021;-73
2021/08/31 05:13:40;;;;;;;12.23;4.32;;;16.20;99.90;;;;;;2082037;28;20026;-73